Weather at Hospital Materno Infantil San Roque Heliport

Public forecast

Using degrees Celsius for public forecast. Weather courtesy of forecast.io.

Closest aviation weather report (METAR) to Hospital Materno Infantil San Roque Heliport

Closest report is Rosario Islas Malvinas International Airport, 71.7 nm (132.8 km) S.

2024/07/25 18:00 (retrieved 14 minutes ago)

SAAR 251800Z VRB03KT CAVOK 23/02 Q1016

Closest aviation forecast (TAF) to Hospital Materno Infantil San Roque Heliport

Closest forecast is Rosario Islas Malvinas International Airport, 71.7 nm (132.8 km) S.

2024/07/25 18:00 (retrieved 14 minutes ago)

TAF SAAR 251700Z 2518/2618 07005KT CAVOK TX24/2618Z TN02/2610Z